Price, Kentucky
Current Conditions -  °F | °C
As of 8:15 PM on Sunday 21 Dec 2014 (Local Time) from KPBX Reporting Station
Clear Clear  
Wind Chill: 31°   Ceiling: Unl
Heat Index: 36°   Visibility: 10mi
Dew Point: 27°   Wind: 6mph
Humidity: 71%   Direction: 20°NNE
Pressure: 30.11"   Gusts: NA
Location:  37.391°N, 82.728°W
Report Text: KPBX 220115Z AUTO 02005KT 10SM CLR 02/M03 A3011 RMK AO2 T00211027
Loading
Personal Weather Stations






























Interactive Weather Map New forecast layout! Learn more

10-Day Weather Forecast

Advertisements
Track Severe Weather on mobile